Schedule Details


Flight Number: CTN439
Departure: Munich (EDDM) at 19:20
Arrival: Kastela (LDSP) at 20:50
Route: ROTAX L603 LATLO DCT NIPEL DCT SABAD L862 OKLAX

Weather Information
EDDM 242150Z 06005KT CAVOK 20/15 Q1021 NOSIG
LDSP 242130Z AUTO 27005KT 220V330 CAVOK 26/15 Q1017
Schedule Frequency

Route Map